Time;durP1;ratioP1;P1;durP2;ratioP2;P2;SDS_P1;SDS_P2;PMS_P1;PMS_P2;Temp;Humidity;BMP_temperature;BMP_pressure;BME280_temperature;BME280_humidity;BME280_pressure;Samples;Min_cycle;Max_cycle;Signal;HPM_P1;HPM_P2
2023/07/28 00:02:24;;;;;;;33.53;10.80;;;17.70;99.90;;;;;;6189598;23;20020;-81
2023/07/28 00:04:49;;;;;;;36.60;11.45;;;17.50;99.90;;;;;;6189421;23;20023;-81
2023/07/28 00:07:15;;;;;;;30.33;10.25;;;17.50;99.90;;;;;;6189476;23;20012;-81
2023/07/28 00:09:41;;;;;;;33.83;10.68;;;17.60;99.90;;;;;;6216053;23;20036;-81
2023/07/28 00:12:06;;;;;;;34.40;11.05;;;17.50;99.90;;;;;;6216016;23;20063;-81
2023/07/28 00:14:32;;;;;;;33.42;10.57;;;17.70;99.90;;;;;;6215949;23;20020;-81
2023/07/28 00:16:58;;;;;;;29.25;10.63;;;17.60;99.90;;;;;;6216360;23;20028;-82
2023/07/28 00:19:24;;;;;;;28.90;10.18;;;17.50;99.90;;;;;;6215828;23;20070;-81
2023/07/28 00:21:50;;;;;;;39.50;11.02;;;17.70;99.90;;;;;;6216029;23;20025;-81
2023/07/28 00:24:18;;;;;;;30.05;10.50;;;17.70;99.90;;;;;;6216352;23;20013;-81
2023/07/28 00:26:44;;;;;;;30.92;9.32;;;17.50;99.90;;;;;;6216282;23;20017;-81
2023/07/28 00:29:10;;;;;;;22.77;9.98;;;17.70;99.90;;;;;;6216375;23;20071;-81
2023/07/28 00:31:36;;;;;;;26.92;9.50;;;17.50;99.90;;;;;;6189053;23;20028;-81
2023/07/28 00:34:02;;;;;;;30.75;9.63;;;17.50;99.90;;;;;;6215805;23;20041;-82
2023/07/28 00:36:28;;;;;;;28.67;10.07;;;17.50;99.90;;;;;;6189406;23;20020;-81
2023/07/28 00:38:54;;;;;;;21.73;9.05;;;17.60;99.90;;;;;;6189220;23;20136;-81
2023/07/28 00:41:20;;;;;;;35.85;9.48;;;17.60;99.90;;;;;;6216956;23;20048;-81
2023/07/28 00:43:46;;;;;;;26.50;9.75;;;17.60;99.90;;;;;;6216597;23;20467;-81
2023/07/28 00:46:13;;;;;;;28.55;9.77;;;17.70;99.90;;;;;;6191432;23;20492;-81
2023/07/28 00:48:40;;;;;;;27.33;9.82;;;17.60;99.90;;;;;;6191317;23;20016;-81
2023/07/28 00:51:07;;;;;;;35.50;9.77;;;17.70;99.90;;;;;;6191244;23;20059;-81
2023/07/28 00:53:33;;;;;;;25.83;10.75;;;17.60;99.90;;;;;;6191319;23;20070;-81
2023/07/28 00:55:59;;;;;;;32.10;10.68;;;17.70;99.90;;;;;;6191265;23;20441;-81
2023/07/28 00:58:24;;;;;;;26.90;10.02;;;17.50;99.90;;;;;;6218069;23;20037;-81
2023/07/28 01:00:50;;;;;;;24.85;8.60;;;17.70;99.90;;;;;;6217901;23;20028;-81
2023/07/28 01:03:18;;;;;;;24.10;9.43;;;17.60;99.90;;;;;;6217836;23;20017;-81
2023/07/28 01:06:15;;;;;;;29.38;9.80;;;17.70;99.90;;;;;;6218127;23;20008;-81
2023/07/28 01:08:58;;;;;;;28.48;10.20;;;17.60;99.90;;;;;;6191204;23;20021;-81
2023/07/28 01:11:24;;;;;;;23.98;8.80;;;17.70;99.90;;;;;;6218115;23;20047;-81
2023/07/28 01:13:50;;;;;;;29.60;10.35;;;17.60;99.90;;;;;;6191040;23;20314;-81
2023/07/28 01:16:15;;;;;;;31.55;10.48;;;17.50;99.90;;;;;;6217974;23;20016;-81
2023/07/28 01:18:41;;;;;;;30.45;10.98;;;17.60;99.90;;;;;;6217901;23;20063;-81
2023/07/28 01:21:13;;;;;;;36.78;10.95;;;17.50;99.90;;;;;;6191070;23;20091;-81
2023/07/28 01:24:04;;;;;;;31.50;11.03;;;17.70;99.90;;;;;;6191110;23;20012;-81
2023/07/28 01:26:36;;;;;;;33.90;11.57;;;17.70;99.90;;;;;;6191057;23;20252;-81
2023/07/28 01:29:03;;;;;;;25.15;10.45;;;17.70;99.90;;;;;;6190961;23;20062;-81
2023/07/28 01:31:30;;;;;;;33.50;10.38;;;17.50;99.90;;;;;;6217474;23;20028;-81
2023/07/28 01:33:58;;;;;;;27.67;10.27;;;17.50;99.90;;;;;;6217910;23;20024;-81
2023/07/28 01:36:24;;;;;;;30.40;11.15;;;17.50;99.90;;;;;;6190919;23;20017;-80
2023/07/28 01:38:50;;;;;;;29.85;10.00;;;17.60;99.90;;;;;;6217720;23;20021;-80
2023/07/28 01:41:18;;;;;;;38.72;11.18;;;17.60;99.90;;;;;;6190844;23;20008;-81
2023/07/28 01:43:44;;;;;;;37.08;10.30;;;17.50;99.90;;;;;;6217724;23;20029;-80
2023/07/28 01:46:09;;;;;;;37.75;11.70;;;17.60;99.90;;;;;;6217449;23;20067;-81
2023/07/28 01:48:35;;;;;;;29.50;10.32;;;17.50;99.90;;;;;;6190837;23;20020;-81
2023/07/28 01:51:01;;;;;;;35.40;10.23;;;17.70;99.90;;;;;;6190791;23;20070;-81
2023/07/28 01:53:26;;;;;;;37.45;10.60;;;17.70;99.90;;;;;;6217228;23;20051;-80
2023/07/28 01:55:52;;;;;;;31.60;10.32;;;17.50;99.90;;;;;;6190371;23;20429;-81
2023/07/28 01:58:17;;;;;;;33.67;11.38;;;17.60;99.90;;;;;;6217458;23;20016;-81
2023/07/28 02:00:43;;;;;;;34.13;11.30;;;17.70;99.90;;;;;;6217582;23;20021;-81
2023/07/28 02:03:09;;;;;;;35.05;11.23;;;17.60;99.90;;;;;;6190730;23;20071;-81
2023/07/28 02:05:34;;;;;;;33.42;11.02;;;17.50;99.90;;;;;;6217197;23;20024;-81
2023/07/28 02:08:00;;;;;;;35.63;11.02;;;17.60;99.90;;;;;;6217444;23;20063;-82
2023/07/28 02:10:27;;;;;;;37.13;12.05;;;17.70;99.90;;;;;;6217226;23;20099;-81
2023/07/28 02:12:52;;;;;;;39.72;11.90;;;17.60;99.90;;;;;;6217125;23;20380;-81
2023/07/28 02:15:18;;;;;;;34.80;12.07;;;17.70;99.90;;;;;;6217435;23;20425;-81
2023/07/28 02:17:44;;;;;;;35.72;11.18;;;17.70;99.90;;;;;;6190508;23;20433;-81
2023/07/28 02:20:15;;;;;;;30.67;10.65;;;17.70;99.90;;;;;;6217333;23;20075;-81
2023/07/28 02:22:41;;;;;;;31.08;11.75;;;17.60;99.90;;;;;;6217166;23;20441;-81
2023/07/28 02:25:07;;;;;;;33.65;11.15;;;17.70;99.90;;;;;;6217404;23;20027;-81
2023/07/28 02:27:33;;;;;;;30.50;11.65;;;17.80;99.90;;;;;;6189156;23;20024;-81
2023/07/28 02:29:59;;;;;;;30.83;9.95;;;17.50;99.90;;;;;;6217404;23;20008;-81
2023/07/28 02:32:25;;;;;;;30.27;12.32;;;17.60;99.90;;;;;;6217034;23;20020;-81
2023/07/28 02:34:51;;;;;;;31.73;10.90;;;17.70;99.90;;;;;;6190355;23;20020;-81
2023/07/28 02:37:17;;;;;;;32.72;10.77;;;17.50;99.90;;;;;;6217127;23;20071;-81
2023/07/28 02:39:43;;;;;;;32.92;10.98;;;17.50;99.90;;;;;;6217089;23;20451;-81
2023/07/28 02:42:08;;;;;;;30.90;10.90;;;17.50;99.90;;;;;;6190384;23;20082;-81
2023/07/28 02:44:34;;;;;;;30.15;10.40;;;17.50;99.90;;;;;;6217187;23;20017;-81
2023/07/28 02:47:00;;;;;;;39.17;10.98;;;17.60;99.90;;;;;;6217233;23;20020;-81
2023/07/28 02:49:25;;;;;;;31.98;10.43;;;17.70;99.90;;;;;;6190191;23;20075;-81
2023/07/28 02:51:51;;;;;;;30.58;10.68;;;17.60;99.90;;;;;;6190221;23;20023;-81
2023/07/28 02:54:17;;;;;;;34.13;10.38;;;17.50;99.90;;;;;;6217215;23;20031;-81
2023/07/28 02:56:42;;;;;;;24.88;9.65;;;17.60;99.90;;;;;;6217174;23;20020;-81
2023/07/28 02:59:08;;;;;;;30.42;10.75;;;17.70;99.90;;;;;;6217029;23;20018;-81
2023/07/28 03:01:36;;;;;;;29.55;9.48;;;17.70;99.90;;;;;;6190232;23;20052;-81
2023/07/28 03:04:03;;;;;;;33.15;10.07;;;17.40;99.90;;;;;;6217051;23;20015;-81
2023/07/28 03:06:29;;;;;;;24.23;9.15;;;17.50;99.90;;;;;;6217065;23;20017;-80
2023/07/28 03:08:54;;;;;;;28.70;9.95;;;17.50;99.90;;;;;;6217034;23;20011;-81
2023/07/28 03:11:20;;;;;;;24.45;9.30;;;17.70;99.90;;;;;;6217013;23;20055;-80
2023/07/28 03:13:46;;;;;;;28.00;9.48;;;17.70;99.90;;;;;;6216949;23;20012;-80
2023/07/28 03:16:12;;;;;;;22.10;8.88;;;17.50;99.90;;;;;;6189946;23;20071;-80
2023/07/28 03:18:37;;;;;;;23.30;9.05;;;17.40;99.90;;;;;;6189686;23;20023;-81
2023/07/28 03:21:03;;;;;;;29.88;9.98;;;17.50;99.90;;;;;;6216833;23;20019;-81
2023/07/28 03:23:29;;;;;;;18.75;8.55;;;17.70;99.90;;;;;;6189921;23;20012;-81
2023/07/28 03:25:55;;;;;;;20.27;8.15;;;17.70;99.90;;;;;;6189926;23;20075;-81
2023/07/28 03:28:20;;;;;;;30.85;9.52;;;17.50;99.90;;;;;;6189842;23;20079;-81
2023/07/28 03:30:46;;;;;;;27.98;9.52;;;17.70;99.90;;;;;;6189623;23;20016;-81
2023/07/28 03:33:12;;;;;;;29.10;9.60;;;17.40;99.90;;;;;;6189689;23;20162;-81
2023/07/28 03:35:37;;;;;;;24.90;8.80;;;17.70;99.90;;;;;;6189812;23;20322;-81
2023/07/28 03:38:03;;;;;;;27.23;9.32;;;17.60;99.90;;;;;;6216556;23;20020;-81
2023/07/28 03:40:32;;;;;;;23.92;9.23;;;17.70;99.90;;;;;;6216263;23;20027;-81
2023/07/28 03:42:57;;;;;;;29.73;9.32;;;17.50;99.90;;;;;;6216603;23;20021;-81
2023/07/28 03:45:23;;;;;;;26.90;9.38;;;17.50;99.90;;;;;;6216646;23;20059;-80
2023/07/28 03:47:49;;;;;;;21.67;8.80;;;17.70;99.90;;;;;;6189677;23;20345;-80
2023/07/28 03:50:14;;;;;;;20.83;8.35;;;17.60;99.90;;;;;;6216528;23;20020;-81
2023/07/28 03:52:40;;;;;;;27.40;9.25;;;17.40;99.90;;;;;;6216499;23;20023;-81
2023/07/28 03:55:06;;;;;;;24.92;8.60;;;17.60;99.90;;;;;;6215739;23;20027;-81
2023/07/28 03:57:31;;;;;;;26.13;8.82;;;17.50;99.90;;;;;;6189434;23;20383;-81
2023/07/28 03:59:57;;;;;;;29.83;9.30;;;17.50;99.90;;;;;;6189324;23;20030;-81
2023/07/28 04:02:23;;;;;;;23.90;8.05;;;17.50;99.90;;;;;;6215963;23;20453;-81
2023/07/28 04:04:56;;;;;;;25.25;8.40;;;17.50;99.90;;;;;;6215931;23;20559;-81
2023/07/28 04:07:22;;;;;;;20.58;7.72;;;17.70;99.90;;;;;;6216535;23;20444;-80
2023/07/28 04:09:48;;;;;;;18.98;7.75;;;17.60;99.90;;;;;;6188845;23;20059;-81
2023/07/28 04:12:16;;;;;;;27.17;8.85;;;17.40;99.90;;;;;;6215554;23;20023;-81
2023/07/28 04:14:44;;;;;;;23.00;8.52;;;17.60;99.90;;;;;;6189370;23;20020;-81
2023/07/28 04:17:11;;;;;;;24.95;8.73;;;17.60;99.90;;;;;;6215952;23;20032;-81
2023/07/28 04:19:39;;;;;;;26.73;8.55;;;17.70;99.90;;;;;;6189400;23;20494;-81
2023/07/28 04:22:05;;;;;;;20.17;8.77;;;17.40;99.90;;;;;;6216216;23;20055;-80
2023/07/28 04:24:31;;;;;;;21.70;8.43;;;17.50;99.90;;;;;;6189314;23;20021;-81
2023/07/28 04:26:57;;;;;;;19.70;8.63;;;17.40;99.90;;;;;;6216222;23;20023;-81
2023/07/28 04:29:23;;;;;;;21.05;9.27;;;17.40;99.90;;;;;;6215827;23;20424;-80
2023/07/28 04:31:51;;;;;;;24.02;8.75;;;17.50;99.90;;;;;;6189477;23;20020;-80
2023/07/28 04:34:17;;;;;;;22.40;9.50;;;17.70;99.90;;;;;;6215700;23;20483;-81
2023/07/28 04:36:43;;;;;;;20.73;8.98;;;17.50;99.90;;;;;;6215898;23;20048;-81
2023/07/28 04:39:08;;;;;;;25.00;9.88;;;17.60;99.90;;;;;;6189145;23;20020;-81
2023/07/28 04:41:34;;;;;;;20.83;9.38;;;17.40;99.90;;;;;;6216206;23;20017;-81
2023/07/28 04:44:00;;;;;;;25.85;10.05;;;17.50;99.90;;;;;;6216155;23;20333;-81
2023/07/28 04:46:25;;;;;;;18.38;9.25;;;17.50;99.90;;;;;;6215736;23;20023;-81
2023/07/28 04:48:51;;;;;;;20.90;9.45;;;17.40;99.90;;;;;;6189294;23;20433;-81
2023/07/28 04:51:16;;;;;;;24.63;10.10;;;17.40;99.90;;;;;;6189256;23;20465;-81
2023/07/28 04:53:42;;;;;;;17.38;9.68;;;17.50;99.90;;;;;;6215856;23;20021;-81
2023/07/28 04:56:13;;;;;;;26.30;10.55;;;17.50;99.90;;;;;;6216150;23;20017;-81
2023/07/28 04:58:39;;;;;;;20.85;11.68;;;17.50;99.90;;;;;;6189019;23;20020;-80
2023/07/28 05:01:05;;;;;;;25.50;12.48;;;17.50;99.90;;;;;;6216533;23;20070;-81
2023/07/28 05:03:30;;;;;;;25.55;13.00;;;17.40;99.90;;;;;;6189248;23;20013;-81
2023/07/28 05:05:56;;;;;;;27.73;12.88;;;17.50;99.90;;;;;;6216093;23;20013;-81
2023/07/28 05:08:22;;;;;;;23.38;13.32;;;17.60;99.90;;;;;;6216143;23;20013;-81
2023/07/28 05:10:47;;;;;;;26.85;13.32;;;17.70;99.90;;;;;;6189101;23;20387;-81
2023/07/28 05:13:13;;;;;;;28.48;13.80;;;17.60;99.90;;;;;;6188976;23;20027;-81
2023/07/28 05:15:39;;;;;;;29.98;12.68;;;17.40;99.90;;;;;;6189174;23;20017;-81
2023/07/28 05:18:04;;;;;;;21.92;12.50;;;17.70;99.90;;;;;;6216051;23;20047;-81
2023/07/28 05:20:30;;;;;;;22.08;12.50;;;17.50;99.90;;;;;;6189075;23;20428;-81
2023/07/28 05:22:56;;;;;;;25.33;13.00;;;17.70;99.90;;;;;;6215664;23;20017;-81
2023/07/28 05:25:22;;;;;;;24.27;12.15;;;17.70;99.90;;;;;;6189017;23;20017;-81
2023/07/28 05:27:48;;;;;;;24.65;11.48;;;17.70;99.90;;;;;;6216011;23;20107;-81
2023/07/28 05:30:20;;;;;;;20.27;11.45;;;17.60;99.90;;;;;;6189164;23;20386;-80
2023/07/28 05:32:47;;;;;;;24.67;11.40;;;17.70;99.90;;;;;;6215731;23;20017;-80
2023/07/28 05:35:16;;;;;;;18.95;10.60;;;17.50;99.90;;;;;;6190871;23;20029;-80
2023/07/28 05:37:41;;;;;;;15.60;10.18;;;17.70;99.90;;;;;;6190789;23;20430;-80
2023/07/28 05:40:11;;;;;;;16.95;9.55;;;17.60;99.90;;;;;;6217519;23;20016;-81
2023/07/28 05:42:36;;;;;;;16.45;9.48;;;17.80;99.90;;;;;;6217329;23;20337;-80
2023/07/28 05:45:03;;;;;;;15.90;9.68;;;17.80;99.90;;;;;;6190694;23;20442;-80
2023/07/28 05:47:28;;;;;;;19.35;10.00;;;17.70;99.90;;;;;;6217732;23;20024;-80
2023/07/28 05:49:54;;;;;;;15.50;9.65;;;17.60;99.90;;;;;;6190702;23;20349;-80
2023/07/28 05:52:23;;;;;;;16.92;9.95;;;17.80;99.90;;;;;;6190653;23;20016;-81
2023/07/28 05:54:48;;;;;;;16.25;11.15;;;17.70;99.90;;;;;;6188979;23;20017;-80
2023/07/28 05:57:14;;;;;;;15.02;9.82;;;17.70;99.90;;;;;;6217461;23;20028;-80
2023/07/28 05:59:40;;;;;;;15.45;10.38;;;17.80;99.90;;;;;;6217433;23;20017;-80
2023/07/28 06:02:06;;;;;;;16.67;10.90;;;17.70;99.90;;;;;;6190518;23;20024;-80
2023/07/28 06:04:31;;;;;;;17.65;9.80;;;17.90;99.90;;;;;;6217438;23;20020;-80
2023/07/28 06:06:57;;;;;;;14.95;9.35;;;17.90;99.90;;;;;;6217403;23;20012;-80
2023/07/28 06:09:22;;;;;;;15.30;9.52;;;17.90;99.90;;;;;;6217355;23;20445;-80
2023/07/28 06:11:48;;;;;;;14.60;10.40;;;17.90;99.90;;;;;;6217375;23;20012;-80
2023/07/28 06:14:13;;;;;;;15.10;11.05;;;17.70;99.90;;;;;;6190491;23;20099;-80
2023/07/28 06:16:42;;;;;;;16.08;10.75;;;17.80;99.90;;;;;;6190404;23;20020;-78
2023/07/28 06:19:08;;;;;;;14.35;10.43;;;17.80;99.90;;;;;;6216916;23;20403;-79
2023/07/28 06:21:34;;;;;;;16.20;10.73;;;17.80;99.90;;;;;;6190420;23;20044;-80
2023/07/28 06:23:59;;;;;;;15.27;10.25;;;17.90;99.90;;;;;;6189242;23;20020;-79
2023/07/28 06:26:25;;;;;;;15.02;10.52;;;17.90;99.90;;;;;;6190055;23;20016;-77
2023/07/28 06:28:51;;;;;;;12.95;9.85;;;17.90;99.90;;;;;;6217082;23;20119;-76
2023/07/28 06:31:16;;;;;;;13.93;10.90;;;17.90;99.90;;;;;;6216167;23;20016;-79
2023/07/28 06:33:42;;;;;;;14.77;10.68;;;18.00;99.90;;;;;;6189248;23;20091;-79
2023/07/28 06:36:08;;;;;;;16.60;10.85;;;17.90;99.90;;;;;;6216401;23;20107;-79
2023/07/28 06:38:33;;;;;;;17.23;9.77;;;18.00;99.90;;;;;;6216409;23;20341;-77
2023/07/28 06:40:59;;;;;;;16.48;10.20;;;18.00;99.90;;;;;;6216156;23;20027;-76
2023/07/28 06:43:26;;;;;;;15.30;10.35;;;18.00;99.90;;;;;;6216442;23;20082;-77
2023/07/28 06:45:53;;;;;;;17.83;9.85;;;18.00;99.90;;;;;;6189856;23;20500;-77
2023/07/28 06:48:18;;;;;;;16.05;9.10;;;18.10;99.90;;;;;;6186220;23;20089;-77
2023/07/28 06:50:47;;;;;;;13.82;8.65;;;18.00;99.90;;;;;;6189817;23;20012;-77
2023/07/28 06:53:12;;;;;;;13.07;8.68;;;18.10;99.90;;;;;;6189934;23;20099;-77
2023/07/28 06:55:42;;;;;;;11.75;7.70;;;18.20;99.90;;;;;;6216738;23;20067;-77
2023/07/28 06:58:09;;;;;;;10.70;7.65;;;18.30;99.90;;;;;;6216443;23;20071;-77
2023/07/28 07:00:35;;;;;;;12.55;7.40;;;18.30;99.90;;;;;;6189798;23;20012;-77
2023/07/28 07:03:00;;;;;;;12.15;8.07;;;18.20;99.90;;;;;;6188472;23;20095;-79
2023/07/28 07:05:26;;;;;;;13.57;8.93;;;18.20;99.90;;;;;;6189758;23;20341;-77
2023/07/28 07:07:52;;;;;;;14.13;9.15;;;18.10;99.90;;;;;;6189602;23;20436;-78
2023/07/28 07:10:18;;;;;;;12.30;7.80;;;18.20;99.90;;;;;;6189773;23;20098;-77
2023/07/28 07:12:44;;;;;;;13.23;8.25;;;18.20;99.90;;;;;;6189726;23;20054;-76
2023/07/28 07:15:11;;;;;;;12.82;7.63;;;18.30;99.90;;;;;;6189741;23;20031;-77
2023/07/28 07:17:37;;;;;;;11.55;7.28;;;18.30;99.90;;;;;;6189620;23;20445;-76
2023/07/28 07:20:03;;;;;;;11.73;7.43;;;18.40;99.90;;;;;;6189499;23;20017;-81
2023/07/28 07:22:29;;;;;;;12.75;7.10;;;18.40;99.90;;;;;;6164704;23;20016;-76
2023/07/28 07:24:56;;;;;;;10.32;6.80;;;18.40;99.90;;;;;;6214918;23;20019;-76
2023/07/28 07:27:24;;;;;;;11.63;6.88;;;18.40;99.90;;;;;;6215206;23;20050;-78
2023/07/28 07:29:50;;;;;;;12.45;6.63;;;18.40;99.90;;;;;;6189398;23;20020;-78
2023/07/28 07:32:18;;;;;;;11.13;7.78;;;18.40;99.90;;;;;;6188433;23;20345;-77
2023/07/28 07:34:43;;;;;;;11.82;7.72;;;18.40;99.90;;;;;;6188911;23;20346;-78
2023/07/28 07:37:09;;;;;;;8.70;6.60;;;18.40;99.90;;;;;;6215494;23;20043;-76
2023/07/28 07:39:37;;;;;;;11.15;7.53;;;18.40;99.90;;;;;;6215864;23;20487;-77
2023/07/28 07:42:05;;;;;;;12.60;7.93;;;18.40;99.90;;;;;;6189354;23;20456;-77
2023/07/28 07:44:30;;;;;;;9.95;6.93;;;18.50;99.90;;;;;;6188892;23;20440;-77
2023/07/28 07:46:58;;;;;;;10.57;7.07;;;18.40;99.90;;;;;;6215973;23;20016;-78
2023/07/28 07:49:24;;;;;;;11.88;7.15;;;18.50;99.90;;;;;;6189210;23;20027;-79
2023/07/28 07:51:50;;;;;;;10.38;6.80;;;18.60;99.90;;;;;;6188888;23;20004;-76
2023/07/28 07:54:18;;;;;;;12.77;7.13;;;18.70;99.90;;;;;;6215587;23;20056;-76
2023/07/28 07:56:44;;;;;;;11.60;7.93;;;18.70;99.90;;;;;;6189291;23;20347;-77
2023/07/28 07:59:10;;;;;;;10.93;6.35;;;18.60;99.90;;;;;;6189216;23;20016;-77
2023/07/28 08:01:35;;;;;;;9.30;6.57;;;18.60;99.90;;;;;;6215821;23;20522;-76
2023/07/28 08:04:01;;;;;;;8.00;5.72;;;18.40;99.90;;;;;;6189122;23;20091;-81
2023/07/28 08:06:27;;;;;;;9.63;5.95;;;18.40;99.90;;;;;;6188851;23;20059;-78
2023/07/28 08:08:53;;;;;;;9.02;5.53;;;18.40;99.90;;;;;;6189320;23;20087;-78
2023/07/28 08:11:19;;;;;;;8.57;5.15;;;18.50;99.90;;;;;;6188786;23;20075;-80
2023/07/28 08:13:45;;;;;;;7.25;4.72;;;18.40;99.90;;;;;;6188671;23;20021;-80
2023/07/28 08:16:11;;;;;;;7.03;5.30;;;18.50;99.90;;;;;;6189325;23;20021;-78
2023/07/28 08:18:36;;;;;;;7.90;5.65;;;18.50;99.90;;;;;;6189265;23;20024;-78
2023/07/28 08:21:02;;;;;;;8.32;5.80;;;18.40;99.90;;;;;;6189415;23;20520;-78
2023/07/28 08:23:28;;;;;;;10.07;6.07;;;18.40;99.90;;;;;;6189387;23;20016;-77
2023/07/28 08:25:53;;;;;;;9.75;5.55;;;18.50;99.90;;;;;;6189443;23;20035;-78
2023/07/28 08:28:19;;;;;;;6.63;5.05;;;18.50;99.90;;;;;;6188760;23;20068;-78
2023/07/28 08:30:45;;;;;;;9.27;5.25;;;18.50;99.90;;;;;;6216109;23;20043;-78
2023/07/28 08:33:10;;;;;;;7.00;5.40;;;18.70;99.90;;;;;;6189113;23;20475;-79
2023/07/28 08:35:36;;;;;;;5.53;4.38;;;18.70;99.90;;;;;;6189285;23;20016;-78
2023/07/28 08:38:02;;;;;;;7.28;4.60;;;18.70;99.90;;;;;;6189269;23;20012;-78
2023/07/28 08:40:29;;;;;;;14.60;4.90;;;18.70;99.90;;;;;;6215990;23;20441;-77
2023/07/28 08:42:55;;;;;;;6.55;4.78;;;18.70;99.90;;;;;;6189195;23;20051;-78
2023/07/28 08:45:23;;;;;;;7.00;5.30;;;18.70;99.90;;;;;;6189284;23;20019;-79
2023/07/28 08:47:49;;;;;;;5.88;4.53;;;18.70;99.90;;;;;;6189233;23;20012;-79
2023/07/28 08:50:14;;;;;;;6.45;4.63;;;18.70;99.90;;;;;;6189286;23;20128;-78
2023/07/28 08:52:40;;;;;;;5.80;4.20;;;18.70;99.90;;;;;;6189251;23;20436;-78
2023/07/28 08:55:06;;;;;;;5.90;3.83;;;18.80;99.90;;;;;;6189260;23;20386;-78
2023/07/28 08:57:32;;;;;;;4.55;2.92;;;18.80;99.90;;;;;;6189183;23;20052;-78
2023/07/28 08:59:57;;;;;;;4.85;3.72;;;19.00;99.90;;;;;;6188987;23;20029;-78
2023/07/28 09:02:23;;;;;;;6.20;3.67;;;19.00;99.90;;;;;;6216114;23;20024;-77
2023/07/28 09:04:49;;;;;;;4.90;3.53;;;19.00;99.90;;;;;;6189026;23;20028;-77
2023/07/28 09:07:15;;;;;;;5.60;3.88;;;19.00;99.90;;;;;;6190971;23;20089;-78
2023/07/28 09:09:41;;;;;;;5.53;3.60;;;18.90;99.90;;;;;;6191202;23;20048;-78
2023/07/28 09:12:08;;;;;;;5.55;4.20;;;18.90;99.90;;;;;;6218015;23;20013;-78
2023/07/28 09:14:36;;;;;;;5.15;3.90;;;19.10;99.90;;;;;;6191143;23;20027;-78
2023/07/28 09:17:13;;;;;;;5.63;3.83;;;19.20;99.90;;;;;;6190935;23;20388;-78
2023/07/28 09:19:51;;;;;;;7.38;4.43;;;19.20;99.90;;;;;;6190896;23;20056;-77
2023/07/28 09:22:17;;;;;;;5.57;4.43;;;19.30;99.90;;;;;;6190949;23;20028;-78
2023/07/28 09:24:43;;;;;;;6.40;4.85;;;19.30;99.90;;;;;;6217966;23;20016;-78
2023/07/28 09:27:23;;;;;;;6.53;5.18;;;19.30;99.90;;;;;;6217892;23;20008;-78
2023/07/28 09:29:50;;;;;;;6.78;5.03;;;19.20;99.90;;;;;;6190930;23;20020;-78
2023/07/28 09:32:30;;;;;;;6.82;4.95;;;19.20;99.90;;;;;;6190768;23;20047;-78
2023/07/28 09:35:13;;;;;;;7.75;5.30;;;19.20;99.90;;;;;;6217488;23;20381;-77
2023/07/28 09:37:43;;;;;;;8.30;5.80;;;19.20;99.90;;;;;;6191043;23;20032;-78
2023/07/28 09:40:22;;;;;;;9.02;5.85;;;19.10;99.90;;;;;;6216243;23;20020;-78
2023/07/28 09:42:54;;;;;;;8.20;5.18;;;19.10;99.90;;;;;;6217440;23;20052;-78
2023/07/28 09:45:23;;;;;;;6.10;4.85;;;19.10;99.90;;;;;;6190829;23;20021;-77
2023/07/28 09:47:55;;;;;;;8.15;4.88;;;19.20;99.90;;;;;;6190657;23;20143;-78
2023/07/28 09:50:23;;;;;;;8.57;5.35;;;19.30;99.90;;;;;;6190822;23;20468;-78
2023/07/28 09:52:53;;;;;;;5.88;4.90;;;19.30;99.90;;;;;;6190580;23;20021;-77
2023/07/28 09:55:19;;;;;;;5.95;5.18;;;19.30;99.90;;;;;;6190820;23;20067;-78
2023/07/28 09:57:54;;;;;;;6.65;5.28;;;19.20;99.90;;;;;;6190720;23;20020;-78
2023/07/28 10:00:22;;;;;;;8.48;6.90;;;19.30;99.90;;;;;;6217142;23;20024;-77
2023/07/28 10:02:48;;;;;;;10.55;8.55;;;19.20;99.90;;;;;;6190722;23;20023;-78
2023/07/28 10:05:15;;;;;;;11.32;9.05;;;19.20;99.90;;;;;;6190762;23;20025;-78
2023/07/28 10:07:45;;;;;;;10.88;8.52;;;19.30;99.90;;;;;;6217068;23;20043;-78
2023/07/28 10:10:13;;;;;;;11.57;9.48;;;19.30;99.90;;;;;;6190682;23;20063;-77
2023/07/28 10:12:52;;;;;;;10.77;8.50;;;19.30;99.90;;;;;;6217504;23;20025;-77
2023/07/28 10:15:27;;;;;;;10.27;7.53;;;19.30;99.90;;;;;;6217171;23;20020;-78
2023/07/28 10:17:57;;;;;;;10.35;6.90;;;19.30;99.90;;;;;;6190168;23;20055;-78
2023/07/28 10:20:30;;;;;;;9.20;6.55;;;19.40;99.90;;;;;;6190406;23;20032;-78
2023/07/28 10:23:25;;;;;;;11.13;6.65;;;19.40;99.90;;;;;;6217520;23;20143;-78
2023/07/28 10:25:58;;;;;;;5.82;4.47;;;19.50;99.90;;;;;;6159236;23;20075;-78
2023/07/28 10:28:27;;;;;;;5.95;3.90;;;19.60;99.90;;;;;;6190529;23;20024;-77
2023/07/28 10:30:54;;;;;;;5.80;3.90;;;19.70;99.90;;;;;;6190926;23;20337;-78
2023/07/28 10:33:29;;;;;;;6.03;3.95;;;19.70;99.90;;;;;;6190440;23;20055;-78
2023/07/28 10:35:58;;;;;;;7.68;3.65;;;19.80;99.90;;;;;;6190430;23;20027;-78
2023/07/28 10:38:32;;;;;;;4.13;3.63;;;19.90;99.90;;;;;;6190232;23;20021;-78
2023/07/28 10:41:15;;;;;;;4.32;3.22;;;19.90;99.90;;;;;;6216834;23;20456;-77
2023/07/28 10:43:41;;;;;;;5.43;3.97;;;19.90;99.90;;;;;;6190208;23;20017;-78
2023/07/28 10:46:09;;;;;;;6.18;4.30;;;20.10;99.90;;;;;;6216636;23;20028;-78
2023/07/28 10:48:47;;;;;;;4.53;3.83;;;20.40;99.90;;;;;;6190228;23;20020;-77
2023/07/28 10:51:22;;;;;;;4.57;4.10;;;20.70;99.90;;;;;;6190148;23;20021;-78
2023/07/28 10:53:55;;;;;;;3.90;3.40;;;20.70;99.90;;;;;;6190044;23;20473;-78
2023/07/28 10:56:21;;;;;;;4.53;3.58;;;20.80;99.90;;;;;;6190169;23;20021;-78
2023/07/28 10:58:55;;;;;;;4.38;3.90;;;20.60;99.90;;;;;;6190076;23;20028;-78
2023/07/28 11:01:21;;;;;;;6.03;5.05;;;20.60;99.90;;;;;;6216874;23;20013;-78
2023/07/28 11:03:47;;;;;;;6.47;5.00;;;20.60;99.90;;;;;;6216866;23;20047;-77
2023/07/28 11:06:13;;;;;;;6.93;4.95;;;20.80;99.90;;;;;;6216929;23;20053;-78
2023/07/28 11:08:38;;;;;;;6.63;5.47;;;21.00;99.90;;;;;;6189976;23;20024;-78
2023/07/28 11:11:05;;;;;;;6.45;5.38;;;21.00;99.90;;;;;;6216797;23;20020;-78
2023/07/28 11:13:31;;;;;;;6.53;5.80;;;21.00;99.90;;;;;;6189946;23;20059;-78
2023/07/28 11:15:57;;;;;;;7.80;6.57;;;21.00;99.90;;;;;;6189863;23;20017;-78
2023/07/28 11:18:26;;;;;;;8.15;6.95;;;21.00;99.90;;;;;;6189645;23;20384;-78
2023/07/28 11:20:51;;;;;;;8.30;6.57;;;21.00;99.90;;;;;;6189753;23;20340;-77
2023/07/28 11:23:17;;;;;;;8.32;6.03;;;20.80;99.90;;;;;;6216470;23;20021;-78
2023/07/28 11:25:44;;;;;;;7.88;6.68;;;20.90;99.90;;;;;;6189856;23;20020;-78
2023/07/28 11:28:10;;;;;;;9.23;6.53;;;21.10;99.90;;;;;;6189419;23;20064;-78
2023/07/28 11:30:40;;;;;;;6.80;6.00;;;21.20;99.90;;;;;;6189403;23;20441;-78
2023/07/28 11:33:11;;;;;;;8.40;6.22;;;21.30;99.90;;;;;;6189629;23;20013;-78
2023/07/28 11:35:38;;;;;;;7.38;6.47;;;21.30;99.90;;;;;;6189679;23;20349;-78
2023/07/28 11:38:04;;;;;;;7.85;6.43;;;21.40;99.90;;;;;;6189703;23;20020;-78
2023/07/28 11:40:29;;;;;;;7.13;5.95;;;21.40;99.90;;;;;;6189369;23;20025;-79
2023/07/28 11:42:56;;;;;;;7.35;6.43;;;21.60;99.90;;;;;;6189681;23;20017;-78
2023/07/28 11:45:25;;;;;;;7.45;6.28;;;21.70;99.90;;;;;;6189636;23;20020;-78
2023/07/28 11:48:05;;;;;;;8.27;5.97;;;21.80;99.90;;;;;;6216226;23;20028;-78
2023/07/28 11:50:39;;;;;;;7.80;5.60;;;22.00;99.90;;;;;;6216570;23;20012;-79
2023/07/28 11:53:06;;;;;;;7.88;6.10;;;22.00;99.90;;;;;;6189676;23;20019;-78
2023/07/28 11:55:34;;;;;;;8.73;6.20;;;22.00;99.90;;;;;;6216153;23;20020;-79
2023/07/28 11:58:01;;;;;;;7.07;5.82;;;21.90;99.90;;;;;;6189957;23;20106;-79
2023/07/28 12:00:45;;;;;;;6.43;4.95;;;21.80;99.90;;;;;;6189453;23;20345;-79
2023/07/28 12:03:12;;;;;;;6.70;5.70;;;21.70;99.90;;;;;;6216462;23;20016;-78
2023/07/28 12:05:39;;;;;;;8.50;5.55;;;21.70;99.90;;;;;;6189574;23;20043;-78
2023/07/28 12:08:09;;;;;;;6.70;5.68;;;21.90;99.90;;;;;;6189375;23;20017;-78
2023/07/28 12:10:35;;;;;;;6.82;5.35;;;21.90;99.90;;;;;;6216222;23;20352;-79
2023/07/28 12:13:09;;;;;;;6.55;4.68;;;22.10;99.90;;;;;;6189418;23;20044;-79
2023/07/28 12:15:40;;;;;;;6.25;4.70;;;22.00;99.90;;;;;;6189494;23;20091;-78
2023/07/28 12:18:14;;;;;;;5.72;4.97;;;22.00;99.90;;;;;;6189518;23;20024;-78
2023/07/28 12:20:48;;;;;;;5.18;4.32;;;22.00;99.90;;;;;;6189340;23;20463;-79
2023/07/28 12:23:15;;;;;;;7.07;5.15;;;22.10;99.90;;;;;;6189380;23;20023;-79
2023/07/28 12:25:41;;;;;;;5.88;4.90;;;22.20;99.90;;;;;;6189326;23;20024;-78
2023/07/28 12:28:07;;;;;;;6.32;4.75;;;22.30;99.90;;;;;;6216293;23;20016;-78
2023/07/28 12:30:39;;;;;;;6.15;4.80;;;22.40;99.90;;;;;;6189376;23;20063;-78
2023/07/28 12:33:06;;;;;;;6.47;4.80;;;22.50;99.90;;;;;;6215730;23;20067;-78
2023/07/28 12:35:37;;;;;;;6.05;4.47;;;22.50;99.90;;;;;;6189158;23;20020;-77
2023/07/28 12:38:06;;;;;;;6.05;4.30;;;22.40;99.90;;;;;;6189276;23;20091;-78
2023/07/28 12:40:33;;;;;;;5.70;4.50;;;22.50;99.90;;;;;;6189610;23;20017;-78